createdAt,value
2022-12-25T00:00:10.411Z,95734.91
2022-12-25T00:02:40.727Z,95734.69
2022-12-25T00:05:09.975Z,95732.56
2022-12-25T00:07:38.301Z,95740.03
2022-12-25T00:10:07.619Z,95733.03
2022-12-25T00:12:37.427Z,95698.94
2022-12-25T00:15:06.266Z,95722.75
2022-12-25T00:17:34.649Z,95699.50
2022-12-25T00:20:02.953Z,95721.06
2022-12-25T00:22:31.733Z,95718.63
2022-12-25T00:25:00.095Z,95679.56
2022-12-25T00:27:28.457Z,95705.72
2022-12-25T00:29:58.177Z,95704.44
2022-12-25T00:32:26.522Z,95700.69
2022-12-25T00:34:54.892Z,95698.84
2022-12-25T00:37:23.287Z,95689.59
2022-12-25T00:39:51.666Z,95681.44
2022-12-25T00:42:20.104Z,95685.25
2022-12-25T00:44:48.991Z,95691.16
2022-12-25T00:47:19.626Z,95645.19
2022-12-25T00:49:48.025Z,95681.16
2022-12-25T00:52:17.054Z,95646.56
2022-12-25T00:54:45.440Z,95685.88
2022-12-25T00:57:13.814Z,95678.41
2022-12-25T00:59:42.221Z,95683.34
2022-12-25T01:02:26.149Z,95689.31
2022-12-25T01:04:56.517Z,95690.25
2022-12-25T01:07:26.461Z,95698.97
2022-12-25T01:10:11.906Z,95657.25
2022-12-25T01:12:42.157Z,95692.59
2022-12-25T01:15:13.840Z,95712.34
2022-12-25T01:17:42.555Z,95695.25
2022-12-25T01:20:13.665Z,95729.75
2022-12-25T01:22:42.458Z,95730.41
2022-12-25T01:25:11.465Z,95665.41
2022-12-25T01:27:40.257Z,95664.19
2022-12-25T01:30:09.841Z,95727.44
2022-12-25T01:32:38.525Z,95690.22
2022-12-25T01:35:07.809Z,95701.88
2022-12-25T01:37:37.611Z,95744.00
2022-12-25T01:40:06.957Z,95624.13
2022-12-25T01:42:35.467Z,95739.47
2022-12-25T01:45:31.253Z,95735.22
2022-12-25T01:48:00.126Z,95705.28
2022-12-25T01:50:29.919Z,95726.38
2022-12-25T01:53:00.109Z,95733.38
2022-12-25T01:55:29.484Z,95738.81
2022-12-25T01:57:58.216Z,95672.13
2022-12-25T02:00:26.588Z,95734.72
2022-12-25T02:02:55.323Z,95703.16
2022-12-25T02:05:29.305Z,95676.09
2022-12-25T02:07:58.068Z,95723.19
2022-12-25T02:10:27.973Z,95723.31
2022-12-25T02:12:56.655Z,95725.66
2022-12-25T02:15:31.348Z,95677.50
2022-12-25T02:18:05.889Z,95714.91
2022-12-25T02:21:09.515Z,95711.34
2022-12-25T02:23:57.715Z,95712.81
2022-12-25T02:26:43.388Z,95708.03
2022-12-25T02:29:23.940Z,95694.78
2022-12-25T02:31:59.536Z,95724.81
2022-12-25T02:34:34.333Z,95722.88
2022-12-25T02:37:08.315Z,95729.66
2022-12-25T02:39:58.702Z,95724.81
2022-12-25T02:42:58.459Z,95733.75
2022-12-25T02:45:51.915Z,95720.41
2022-12-25T02:48:41.394Z,95718.22
2022-12-25T02:51:30.645Z,95701.81
2022-12-25T02:54:20.132Z,95700.81
2022-12-25T02:57:08.106Z,95692.16
2022-12-25T02:59:57.555Z,95690.53
2022-12-25T03:02:47.430Z,95704.19
2022-12-25T03:05:38.713Z,95702.09
2022-12-25T03:08:12.007Z,95704.00
2022-12-25T03:11:02.638Z,95634.22
2022-12-25T03:13:35.881Z,95707.38
2022-12-25T03:16:22.002Z,95701.59
2022-12-25T03:18:52.055Z,95709.19
2022-12-25T03:21:37.923Z,95714.53
2022-12-25T03:24:24.679Z,95719.41
2022-12-25T03:26:58.808Z,95716.13
2022-12-25T03:29:48.012Z,95707.06
2022-12-25T03:32:29.629Z,95720.00
2022-12-25T03:35:24.611Z,95717.03
2022-12-25T03:38:27.243Z,95709.00
2022-12-25T03:41:21.149Z,95724.31
2022-12-25T03:44:13.023Z,95722.69
2022-12-25T03:47:06.235Z,95720.00
2022-12-25T03:50:01.497Z,95685.81
2022-12-25T03:52:52.303Z,95692.38
2022-12-25T03:55:38.241Z,95730.13
2022-12-25T03:58:23.871Z,95738.22
2022-12-25T04:01:11.554Z,95739.53
2022-12-25T04:04:02.738Z,95734.97
2022-12-25T04:06:48.346Z,95708.88
2022-12-25T04:09:35.624Z,95729.63
2022-12-25T04:12:21.593Z,95735.91
2022-12-25T04:15:07.604Z,95745.31
2022-12-25T04:17:53.444Z,95749.66
2022-12-25T04:20:44.813Z,95748.09
2022-12-25T04:23:30.298Z,95740.38
2022-12-25T04:26:18.540Z,95740.06
2022-12-25T04:29:04.318Z,95726.81
2022-12-25T04:31:49.892Z,95736.81
2022-12-25T04:34:40.876Z,95750.78
2022-12-25T04:37:09.172Z,95744.13
2022-12-25T04:39:37.551Z,95748.16
2022-12-25T04:42:07.586Z,95746.34
2022-12-25T04:44:35.961Z,95736.44
2022-12-25T04:47:10.718Z,95740.97
2022-12-25T04:49:39.837Z,95737.78
2022-12-25T04:52:08.326Z,95678.25
2022-12-25T04:54:36.718Z,95731.06
2022-12-25T04:57:06.577Z,95726.75
2022-12-25T04:59:35.004Z,95674.72
2022-12-25T05:02:03.422Z,95723.56
2022-12-25T05:04:31.801Z,95717.63
2022-12-25T05:07:00.199Z,95722.53
2022-12-25T05:09:28.627Z,95719.03
2022-12-25T05:11:56.982Z,95712.34
2022-12-25T05:14:26.733Z,95707.56
2022-12-25T05:16:55.158Z,95702.44
2022-12-25T05:19:23.722Z,95674.09
2022-12-25T05:21:52.123Z,95706.78
2022-12-25T05:24:20.600Z,95708.28
2022-12-25T05:26:49.025Z,95703.25
2022-12-25T05:29:17.385Z,95703.75
2022-12-25T05:31:47.241Z,95698.38
2022-12-25T05:34:15.950Z,95695.69
2022-12-25T05:36:44.231Z,95695.94
2022-12-25T05:39:12.657Z,95695.94
2022-12-25T05:41:41.738Z,95703.75
2022-12-25T05:44:10.208Z,95704.88
2022-12-25T05:46:38.561Z,95714.59
2022-12-25T05:49:08.557Z,95688.72
2022-12-25T05:51:37.047Z,95699.00
2022-12-25T05:54:05.623Z,95707.84
2022-12-25T05:56:33.949Z,95715.09
2022-12-25T05:59:02.302Z,95703.56
2022-12-25T06:01:31.146Z,95698.72
2022-12-25T06:03:59.542Z,95704.09
2022-12-25T06:06:29.289Z,95703.84
2022-12-25T06:08:57.800Z,95696.34
2022-12-25T06:11:26.197Z,95693.16
2022-12-25T06:13:55.107Z,95692.09
2022-12-25T06:16:23.804Z,95698.78
2022-12-25T06:18:53.975Z,95700.66
2022-12-25T06:21:22.381Z,95701.22
2022-12-25T06:23:52.263Z,95694.22
2022-12-25T06:26:21.533Z,95701.72
2022-12-25T06:28:50.279Z,95711.63
2022-12-25T06:31:21.569Z,95682.19
2022-12-25T06:33:50.590Z,95707.91
2022-12-25T06:36:21.274Z,95688.56
2022-12-25T06:38:52.274Z,95720.22
2022-12-25T06:41:22.679Z,95712.41
2022-12-25T06:43:52.469Z,95722.13
2022-12-25T06:46:22.132Z,95659.50
2022-12-25T06:48:50.868Z,95726.41
2022-12-25T06:51:21.425Z,95728.03
2022-12-25T06:53:52.495Z,95729.09
2022-12-25T06:56:24.356Z,95730.19
2022-12-25T06:58:55.543Z,95723.72
2022-12-25T07:01:26.726Z,95724.53
2022-12-25T07:03:58.048Z,95716.22
2022-12-25T07:06:26.509Z,95698.03
2022-12-25T07:08:56.698Z,95669.34
2022-12-25T07:11:25.365Z,95697.44
2022-12-25T07:13:53.775Z,95683.50
2022-12-25T07:16:22.245Z,95675.91
2022-12-25T07:18:50.824Z,95686.72
2022-12-25T07:21:20.945Z,95690.50
2022-12-25T07:23:51.389Z,95681.59
2022-12-25T07:26:21.238Z,95689.41
2022-12-25T07:28:49.661Z,95666.22
2022-12-25T07:31:19.353Z,95683.28
2022-12-25T07:33:47.691Z,95696.44
2022-12-25T07:36:16.599Z,95687.84
2022-12-25T07:38:45.281Z,95691.56
2022-12-25T07:41:14.178Z,95682.94
2022-12-25T07:43:43.980Z,95693.72
2022-12-25T07:46:12.635Z,95665.16
2022-12-25T07:48:41.196Z,95686.78
2022-12-25T07:51:12.732Z,95652.75
2022-12-25T07:53:41.500Z,95678.97
2022-12-25T07:56:13.180Z,95647.44
2022-12-25T07:58:42.208Z,95670.72
2022-12-25T08:01:15.158Z,95679.84
2022-12-25T08:03:43.751Z,95648.50
2022-12-25T08:06:12.901Z,95660.50
2022-12-25T08:08:42.273Z,95662.13
2022-12-25T08:11:11.537Z,95662.13
2022-12-25T08:13:40.123Z,95664.22
2022-12-25T08:16:11.323Z,95665.38
2022-12-25T08:18:43.257Z,95664.84
2022-12-25T08:21:13.060Z,95664.59
2022-12-25T08:23:43.035Z,95679.38
2022-12-25T08:26:15.511Z,95677.78
2022-12-25T08:28:43.880Z,95673.53
2022-12-25T08:31:16.501Z,95681.06
2022-12-25T08:33:46.756Z,95663.03
2022-12-25T08:36:15.632Z,95683.75
2022-12-25T08:38:44.251Z,95683.25
2022-12-25T08:41:13.459Z,95675.22
2022-12-25T08:43:42.451Z,95669.34
2022-12-25T08:46:11.578Z,95573.81
2022-12-25T08:48:42.832Z,95661.91
2022-12-25T08:51:16.370Z,95667.28
2022-12-25T08:53:44.766Z,95655.72
2022-12-25T08:56:13.817Z,95656.56
2022-12-25T08:58:43.160Z,95644.75
2022-12-25T09:01:12.197Z,95645.81
2022-12-25T09:03:40.967Z,95648.53
2022-12-25T09:06:11.509Z,95645.03
2022-12-25T09:08:48.152Z,95628.28
2022-12-25T09:11:18.517Z,95644.50
2022-12-25T09:13:46.908Z,95644.50
2022-12-25T09:16:17.862Z,95642.34
2022-12-25T09:18:46.544Z,95576.06
2022-12-25T09:21:16.856Z,95651.25
2022-12-25T09:23:46.859Z,95646.97
2022-12-25T09:26:18.143Z,95650.19
2022-12-25T09:28:51.918Z,95655.56
2022-12-25T09:31:22.008Z,95646.16
2022-12-25T09:33:50.887Z,95646.50
2022-12-25T09:36:21.573Z,95649.72
2022-12-25T09:38:51.596Z,95649.50
2022-12-25T09:41:28.775Z,95665.91
2022-12-25T09:44:02.782Z,95657.31
2022-12-25T09:46:39.876Z,95628.81
2022-12-25T09:49:15.056Z,95600.47
2022-12-25T09:51:47.199Z,95631.53
2022-12-25T09:54:23.541Z,95622.84
2022-12-25T09:56:52.311Z,95621.75
2022-12-25T09:59:26.093Z,95613.41
2022-12-25T10:02:11.903Z,95609.66
2022-12-25T10:05:01.069Z,95591.13
2022-12-25T10:07:37.309Z,95587.16
2022-12-25T10:10:24.179Z,95584.81
2022-12-25T10:13:05.056Z,95581.88
2022-12-25T10:15:43.389Z,95581.66
2022-12-25T10:18:36.401Z,95571.19
2022-12-25T10:21:12.670Z,95573.03
2022-12-25T10:23:45.282Z,95564.19
2022-12-25T10:26:18.747Z,95564.72
2022-12-25T10:28:48.667Z,95547.22
2022-12-25T10:31:21.772Z,95554.69
2022-12-25T10:33:51.587Z,95567.66
2022-12-25T10:36:23.600Z,95565.19
2022-12-25T10:38:52.452Z,95563.56
2022-12-25T10:41:37.147Z,95542.66
2022-12-25T10:44:14.869Z,95512.94
2022-12-25T10:46:44.015Z,95544.50
2022-12-25T10:49:17.952Z,95492.88
2022-12-25T10:51:46.415Z,95525.47
2022-12-25T10:54:22.776Z,95491.91
2022-12-25T10:56:57.910Z,95508.59
2022-12-25T10:59:27.923Z,95492.78
2022-12-25T11:01:57.407Z,95480.63
2022-12-25T11:04:28.918Z,95496.25
2022-12-25T11:07:06.548Z,95518.00
2022-12-25T11:09:35.222Z,95522.03
2022-12-25T11:12:05.825Z,95548.59
2022-12-25T11:14:34.342Z,95559.34
2022-12-25T11:17:10.380Z,95556.91
2022-12-25T11:19:38.753Z,95563.38
2022-12-25T11:22:19.344Z,95560.13
2022-12-25T11:24:48.064Z,95548.84
2022-12-25T11:27:27.798Z,95540.22
2022-12-25T11:30:00.392Z,95527.59
2022-12-25T11:32:31.788Z,95525.72
2022-12-25T11:35:02.680Z,95530.03
2022-12-25T11:37:36.957Z,95529.22
2022-12-25T11:40:06.948Z,95518.78
2022-12-25T11:42:41.620Z,95523.34
2022-12-25T11:45:14.759Z,95515.56
2022-12-25T11:47:47.875Z,95516.09
2022-12-25T11:50:25.044Z,95512.88
2022-12-25T11:52:54.561Z,95522.53
2022-12-25T11:55:32.732Z,95518.78
2022-12-25T11:58:08.220Z,95495.56
2022-12-25T12:00:37.218Z,95517.13
2022-12-25T12:03:12.870Z,95500.22
2022-12-25T12:05:47.992Z,95508.53
2022-12-25T12:08:16.376Z,95506.34
2022-12-25T12:10:59.266Z,95459.28
2022-12-25T12:13:39.589Z,95491.88
2022-12-25T12:16:09.244Z,95484.81
2022-12-25T12:18:39.011Z,95474.03
2022-12-25T12:21:11.372Z,95463.34
2022-12-25T12:23:52.373Z,95454.78
2022-12-25T12:26:21.823Z,95456.88
2022-12-25T12:28:53.490Z,95473.53
2022-12-25T12:31:22.170Z,95477.84
2022-12-25T12:33:55.234Z,95486.94
2022-12-25T12:36:35.790Z,95493.34
2022-12-25T12:39:06.657Z,95492.25
2022-12-25T12:41:47.388Z,95462.91
2022-12-25T12:44:18.798Z,95418.50
2022-12-25T12:46:55.997Z,95479.34
2022-12-25T12:49:26.257Z,95464.88
2022-12-25T12:52:06.045Z,95458.97
2022-12-25T12:54:34.763Z,95443.69
2022-12-25T12:57:04.915Z,95449.56
2022-12-25T12:59:41.220Z,95454.72
2022-12-25T13:02:30.646Z,95439.94
2022-12-25T13:05:03.428Z,95435.94
2022-12-25T13:07:53.747Z,95432.19
2022-12-25T13:10:29.939Z,95411.31
2022-12-25T13:13:03.104Z,95425.25
2022-12-25T13:15:36.222Z,95418.56
2022-12-25T13:18:07.206Z,95418.28
2022-12-25T13:20:43.270Z,95393.50
2022-12-25T13:23:16.597Z,95411.84
2022-12-25T13:25:53.799Z,95421.00
2022-12-25T13:28:29.683Z,95387.59
2022-12-25T13:31:16.960Z,95424.19
2022-12-25T13:33:48.558Z,95417.22
2022-12-25T13:36:17.056Z,95416.41
2022-12-25T13:38:47.579Z,95419.66
2022-12-25T13:41:37.889Z,95422.56
2022-12-25T13:44:15.518Z,95425.28
2022-12-25T13:46:45.360Z,95420.72
2022-12-25T13:49:17.644Z,95414.81
2022-12-25T13:51:46.497Z,95416.72
2022-12-25T13:54:16.972Z,95414.81
2022-12-25T13:56:50.064Z,95414.56
2022-12-25T13:59:20.306Z,95374.78
2022-12-25T14:01:51.486Z,95350.03
2022-12-25T14:04:21.961Z,95398.16
2022-12-25T14:06:51.011Z,95384.44
2022-12-25T14:09:20.627Z,95372.63
2022-12-25T14:11:52.688Z,95364.59
2022-12-25T14:14:23.658Z,95378.03
2022-12-25T14:16:56.435Z,95370.50
2022-12-25T14:19:28.684Z,95383.94
2022-12-25T14:22:01.515Z,95387.16
2022-12-25T14:24:32.028Z,95390.38
2022-12-25T14:27:03.075Z,95372.38
2022-12-25T14:29:38.036Z,95381.25
2022-12-25T14:32:15.326Z,95385.28
2022-12-25T14:34:46.347Z,95365.94
2022-12-25T14:37:18.514Z,95317.81
2022-12-25T14:39:48.249Z,95395.22
2022-12-25T14:42:22.141Z,95391.47
2022-12-25T14:45:03.405Z,95378.31
2022-12-25T14:47:35.356Z,95385.00
2022-12-25T14:50:14.066Z,95369.41
2022-12-25T14:52:45.786Z,95367.81
2022-12-25T14:55:21.722Z,95369.97
2022-12-25T14:57:53.933Z,95374.25
2022-12-25T15:00:25.189Z,95381.25
2022-12-25T15:02:57.772Z,95371.31
2022-12-25T15:05:32.004Z,95366.75
2022-12-25T15:08:20.876Z,95367.56
2022-12-25T15:11:04.884Z,95354.91
2022-12-25T15:13:35.474Z,95349.56
2022-12-25T15:16:10.503Z,95344.69
2022-12-25T15:18:43.541Z,95332.91
2022-12-25T15:21:18.250Z,95295.03
2022-12-25T15:23:46.668Z,95274.31
2022-12-25T15:26:15.873Z,95339.63
2022-12-25T15:28:44.713Z,95333.44
2022-12-25T15:31:22.047Z,95331.28
2022-12-25T15:33:52.190Z,95322.16
2022-12-25T15:36:20.566Z,95329.13
2022-12-25T15:38:48.891Z,95335.59
2022-12-25T15:41:34.735Z,95299.59
2022-12-25T15:44:05.144Z,95339.88
2022-12-25T15:46:34.099Z,95332.91
2022-12-25T15:49:04.247Z,95316.78
2022-12-25T15:51:32.679Z,95306.31
2022-12-25T15:54:01.212Z,95305.50
2022-12-25T15:56:31.062Z,95290.22
2022-12-25T15:58:59.481Z,95325.38
2022-12-25T16:01:27.927Z,95319.75
2022-12-25T16:03:56.489Z,95311.41
2022-12-25T16:06:27.535Z,95307.09
2022-12-25T16:08:55.893Z,95315.16
2022-12-25T16:11:24.423Z,95307.66
2022-12-25T16:13:52.834Z,95318.94
2022-12-25T16:16:22.907Z,95309.78
2022-12-25T16:18:51.251Z,95297.44
2022-12-25T16:21:22.457Z,95291.28
2022-12-25T16:23:52.362Z,95282.41
2022-12-25T16:26:20.915Z,95291.53
2022-12-25T16:28:49.289Z,95284.53
2022-12-25T16:31:17.687Z,95281.31
2022-12-25T16:33:46.034Z,95288.06
2022-12-25T16:36:14.415Z,95281.34
2022-12-25T16:38:42.784Z,95280.53
2022-12-25T16:41:14.269Z,95297.19
2022-12-25T16:43:43.015Z,95297.97
2022-12-25T16:46:12.502Z,95289.09
2022-12-25T16:48:41.101Z,95302.00
2022-12-25T16:51:11.428Z,95288.00
2022-12-25T16:53:40.142Z,95290.69
2022-12-25T16:56:09.230Z,95274.88
2022-12-25T16:58:40.356Z,95305.75
2022-12-25T17:01:09.799Z,95304.41
2022-12-25T17:03:38.813Z,95305.75
2022-12-25T17:06:14.075Z,95309.78
2022-12-25T17:08:43.067Z,95300.94
2022-12-25T17:11:11.511Z,95295.56
2022-12-25T17:13:41.433Z,95304.97
2022-12-25T17:16:17.663Z,95307.63
2022-12-25T17:18:46.597Z,95320.56
2022-12-25T17:21:15.944Z,95327.25
2022-12-25T17:23:45.254Z,95332.88
2022-12-25T17:26:14.016Z,95299.84
2022-12-25T17:28:44.134Z,95299.31
2022-12-25T17:31:14.539Z,95300.13
2022-12-25T17:33:44.829Z,95308.72
2022-12-25T17:36:15.369Z,95311.09
2022-12-25T17:38:44.353Z,95295.78
2022-12-25T17:41:15.135Z,95302.78
2022-12-25T17:43:46.000Z,95296.06
2022-12-25T17:46:16.185Z,95289.91
2022-12-25T17:48:45.135Z,95311.91
2022-12-25T17:51:16.320Z,95285.31
2022-12-25T17:53:46.837Z,95299.81
2022-12-25T17:56:16.261Z,95295.25
2022-12-25T17:58:46.429Z,95301.44
2022-12-25T18:01:17.042Z,95298.47
2022-12-25T18:03:46.263Z,95288.78
2022-12-25T18:06:17.226Z,95249.06
2022-12-25T18:08:46.810Z,95267.81
2022-12-25T18:11:17.928Z,95286.63
2022-12-25T18:13:51.950Z,95289.59
2022-12-25T18:16:22.172Z,95292.00
2022-12-25T18:18:52.737Z,95298.19
2022-12-25T18:21:22.763Z,95225.19
2022-12-25T18:23:51.497Z,95312.94
2022-12-25T18:26:21.246Z,95307.59
2022-12-25T18:28:51.649Z,95322.63
2022-12-25T18:31:21.486Z,95312.94
2022-12-25T18:33:50.344Z,95315.66
2022-12-25T18:36:21.651Z,95315.63
2022-12-25T18:38:51.359Z,95314.25
2022-12-25T18:41:21.291Z,95303.81
2022-12-25T18:43:55.546Z,95300.03
2022-12-25T18:46:25.968Z,95306.25
2022-12-25T18:48:55.266Z,95316.44
2022-12-25T18:51:23.738Z,95304.31
2022-12-25T18:53:52.376Z,95318.88
2022-12-25T18:56:21.258Z,95301.69
2022-12-25T18:58:51.314Z,95302.47
2022-12-25T19:01:21.822Z,95273.47
2022-12-25T19:03:51.714Z,95291.44
2022-12-25T19:06:20.971Z,95233.50
2022-12-25T19:08:49.384Z,95279.63
2022-12-25T19:11:18.017Z,95285.78
2022-12-25T19:13:47.196Z,95272.13
2022-12-25T19:16:17.452Z,95267.53
2022-12-25T19:18:45.863Z,95264.59
2022-12-25T19:21:14.241Z,95259.22
2022-12-25T19:23:42.632Z,95264.06
2022-12-25T19:26:12.449Z,95263.50
2022-12-25T19:28:41.875Z,95273.69
2022-12-25T19:31:11.204Z,95265.63
2022-12-25T19:33:42.527Z,95255.44
2022-12-25T19:36:13.588Z,95274.78
2022-12-25T19:38:42.742Z,95237.75
2022-12-25T19:41:13.235Z,95259.22
2022-12-25T19:43:43.023Z,95267.28
2022-12-25T19:46:18.053Z,95270.75
2022-12-25T19:48:48.640Z,95275.34
2022-12-25T19:51:19.031Z,95249.56
2022-12-25T19:53:47.968Z,95254.88
2022-12-25T19:56:16.900Z,95268.88
2022-12-25T19:58:46.071Z,95268.88
2022-12-25T20:01:16.751Z,95257.03
2022-12-25T20:03:46.435Z,95250.06
2022-12-25T20:06:20.034Z,95222.44
2022-12-25T20:08:49.160Z,95250.84
2022-12-25T20:11:18.423Z,95266.22
2022-12-25T20:13:47.007Z,95259.22
2022-12-25T20:16:15.435Z,95250.63
2022-12-25T20:18:43.836Z,95244.19
2022-12-25T20:21:14.848Z,95247.41
2022-12-25T20:23:45.539Z,95245.78
2022-12-25T20:26:14.870Z,95243.09
2022-12-25T20:28:43.766Z,95242.59
2022-12-25T20:31:15.560Z,95235.06
2022-12-25T20:33:43.949Z,95221.69
2022-12-25T20:36:13.222Z,95246.91
2022-12-25T20:38:41.748Z,95243.63
2022-12-25T20:41:29.825Z,95235.53
2022-12-25T20:43:59.116Z,95246.31
2022-12-25T20:46:28.877Z,95199.13
2022-12-25T20:48:57.311Z,95220.03
2022-12-25T20:51:27.663Z,95229.66
2022-12-25T20:53:56.683Z,95230.75
2022-12-25T20:56:27.826Z,95234.22
2022-12-25T20:58:56.919Z,95221.91
2022-12-25T21:01:25.695Z,95225.34
2022-12-25T21:03:54.940Z,95219.94
2022-12-25T21:06:24.063Z,95224.22
2022-12-25T21:08:52.464Z,95211.88
2022-12-25T21:11:21.639Z,95154.81
2022-12-25T21:13:51.818Z,95217.03
2022-12-25T21:16:22.978Z,95201.19
2022-12-25T21:18:53.491Z,95198.47
2022-12-25T21:21:23.285Z,95206.28
2022-12-25T21:23:52.194Z,95193.09
2022-12-25T21:26:22.230Z,95198.50
2022-12-25T21:28:54.709Z,95208.16
2022-12-25T21:31:23.345Z,95180.72
2022-12-25T21:33:54.135Z,95196.63
2022-12-25T21:36:26.922Z,95209.28
2022-12-25T21:38:57.906Z,94963.75
2022-12-25T21:41:27.686Z,95148.03
2022-12-25T21:43:57.991Z,95199.53
2022-12-25T21:46:27.262Z,95220.56
2022-12-25T21:48:56.145Z,95232.41
2022-12-25T21:51:44.190Z,95248.50
2022-12-25T21:54:13.728Z,95237.78
2022-12-25T21:56:45.276Z,95148.72
2022-12-25T21:59:18.043Z,95235.63
2022-12-25T22:01:46.868Z,95230.03
2022-12-25T22:04:17.023Z,95220.06
2022-12-25T22:07:03.433Z,95217.34
2022-12-25T22:09:32.067Z,95245.84
2022-12-25T22:12:18.660Z,95250.31
2022-12-25T22:14:56.182Z,95249.53
2022-12-25T22:17:45.028Z,95248.22
2022-12-25T22:20:16.223Z,95235.81
2022-12-25T22:22:45.095Z,95257.03
2022-12-25T22:25:13.702Z,95234.00
2022-12-25T22:27:43.768Z,95235.28
2022-12-25T22:30:16.359Z,95254.38
2022-12-25T22:32:45.094Z,95256.53
2022-12-25T22:35:14.008Z,95258.13
2022-12-25T22:37:43.513Z,95257.84
2022-12-25T22:40:14.735Z,95250.63
2022-12-25T22:42:43.808Z,95252.19
2022-12-25T22:45:14.327Z,95260.81
2022-12-25T22:47:43.041Z,95262.16
2022-12-25T22:50:11.827Z,95235.06
2022-12-25T22:52:40.518Z,95258.38
2022-12-25T22:55:10.427Z,95243.63
2022-12-25T22:57:41.541Z,95253.53
2022-12-25T23:00:11.091Z,95255.44
2022-12-25T23:02:41.101Z,95264.28
2022-12-25T23:05:09.715Z,95253.47
2022-12-25T23:07:38.135Z,95247.38
2022-12-25T23:10:07.796Z,95250.59
2022-12-25T23:12:53.267Z,95263.47
2022-12-25T23:15:21.553Z,95223.28
2022-12-25T23:18:08.606Z,95245.13
2022-12-25T23:20:55.713Z,95256.94
2022-12-25T23:23:41.408Z,95254.19
2022-12-25T23:26:09.959Z,95261.84
2022-12-25T23:28:56.710Z,95270.75
2022-12-25T23:31:27.995Z,95244.13
2022-12-25T23:33:57.813Z,95268.06
2022-12-25T23:36:26.528Z,95259.75
2022-12-25T23:38:55.030Z,95274.03
2022-12-25T23:41:23.419Z,95275.88
2022-12-25T23:43:51.998Z,95275.91
2022-12-25T23:46:20.876Z,95270.53
2022-12-25T23:48:49.280Z,95239.69
2022-12-25T23:51:19.173Z,95279.13
2022-12-25T23:53:47.536Z,95325.09
2022-12-25T23:56:16.134Z,95284.00
2022-12-25T23:58:51.764Z,95292.03
